Flight Track Log - Related Links

Times and Time Zones

All times are in EDT time to prevent confusion due to time zone crossing. See the ASQ5685 flight status page for this flight to view local times or setup timezone preferences in your user account.

Time Position Orientation Groundspeed Altitude Reporting Facility
EDT Latitude Longitude Course Direction KTS MPH feet Rate Location/Type
Sun 09:43:12 AM 33.6333 -84.4667 48° Northeast 172 198 2,500  Level Atlanta TRACON
Sun 09:44:12 AM 33.6000 -84.5333 239° Southwest 248 285 4,100 2,200 Climbing Atlanta TRACON
Sun 09:45:00 AM 33.8592 -84.1635 73° East  Level Estimated
Sun 09:45:12 AM 33.5500 -84.5833 220° Southwest 277 319 6,900  Level Atlanta TRACON
Sun 09:46:00 AM 33.9333 -84.0750 54° Northeast  Level Estimated
Sun 09:46:57 AM 33.4553 -84.5144 149° Southeast 257 296 11,200  Level Atlanta Center
Sun 09:47:00 AM 33.9057 -83.9538 105° East  Level FlightAware Approximate
Sun 09:47:57 AM 33.4556 -84.4022 90° East 278 320 12,400  Level Atlanta Center
Sun 09:48:00 AM 33.9805 -83.8663 48° Northeast  Level Estimated
Sun 09:48:57 AM 33.4706 -84.2828 81° East 343 395 13,400  Level Atlanta Center
Sun 09:49:57 AM 33.5561 -84.1933 41° Northeast 363 418 14,400 1,050 Climbing Atlanta Center
Sun 09:50:57 AM 33.6378 -84.0911 46° Northeast 402 463 15,500 1,300 Climbing Atlanta Center
Sun 09:51:57 AM 33.7192 -83.9864 47° Northeast 420 483 17,000 1,550 Climbing Atlanta Center
Sun 09:52:57 AM 33.7961 -83.8839 48° Northeast 420 483 18,600 1,550 Climbing Atlanta Center
Sun 09:53:57 AM 33.8775 -83.7836 46° Northeast 415 478 20,100 1,550 Climbing Atlanta Center
Sun 09:54:57 AM 33.9522 -83.6806 49° Northeast 410 472 21,700 1,300 Climbing Atlanta Center
Sun 09:55:57 AM 34.0272 -83.5625 53° Northeast 405 466 22,700 800 Climbing Atlanta Center
Sun 09:56:57 AM 34.0975 -83.4492 53° Northeast 411 473 23,300 600 Climbing Atlanta Center
Sun 09:57:57 AM 34.1700 -83.3333 53° Northeast 424 488 23,900 550 Climbing Atlanta Center
Sun 09:58:57 AM 34.2464 -83.2094 53° Northeast 441 507 24,400 500 Climbing Atlanta Center
Sun 09:59:57 AM 34.3206 -83.0881 53° Northeast 447 514 24,900 700 Climbing Atlanta Center
Sun 10:00:57 AM 34.3989 -82.9664 52° Northeast 454 522 25,800 950 Climbing Atlanta Center
Sun 10:01:57 AM 34.4750 -82.8469 52° Northeast 454 522 26,800 1,050 Climbing Atlanta Center
Sun 10:02:57 AM 34.5469 -82.7300 53° Northeast 437 503 27,900 1,050 Climbing Atlanta Center
Sun 10:03:57 AM 34.6125 -82.6128 56° Northeast 428 493 28,900 550 Climbing Atlanta Center
Sun 10:04:57 AM 34.6822 -82.5081 51° Northeast 422 486 29,000 50 Climbing Atlanta Center
Sun 10:05:57 AM 34.7536 -82.3878 54° Northeast 427 491 29,000  Level Atlanta Center
Sun 10:06:57 AM 34.8292 -82.2675 53° Northeast 439 505 29,000  Level Atlanta Center
Sun 10:07:57 AM 34.9025 -82.1419 55° Northeast 444 511 29,000  Level Atlanta Center
Sun 10:08:57 AM 34.9839 -82.0158 52° Northeast 437 503 29,000  Level Atlanta Center
Sun 10:09:57 AM 35.0547 -81.8947 54° Northeast 443 510 29,000  Level Atlanta Center
Sun 10:10:57 AM 35.1214 -81.7686 57° Northeast 438 504 29,000  Level Atlanta Center
Sun 10:11:57 AM 35.1858 -81.6422 58° Northeast 433 498 29,000  Level Atlanta Center
Sun 10:12:57 AM 35.2522 -81.5158 57° Northeast 439 505 29,000  Level Atlanta Center
Sun 10:13:57 AM 35.3183 -81.3892 57° Northeast 439 505 29,000  Level Atlanta Center
Sun 10:14:57 AM 35.3822 -81.2597 59° Northeast 439 505 29,000  Level Atlanta Center
Sun 10:15:57 AM 35.4481 -81.1300 58° Northeast 444 511 29,000  Level Atlanta Center
Sun 10:16:57 AM 35.5181 -81.0025 56° Northeast 444 511 29,000  Level Atlanta Center
Sun 10:17:57 AM 35.5836 -80.8747 58° Northeast 444 511 29,000  Level Atlanta Center
Sun 10:18:57 AM 35.6492 -80.7497 57° Northeast 444 511 29,000  Level Atlanta Center
Sun 10:19:57 AM 35.7144 -80.6242 57° Northeast 444 511 29,000  Level Atlanta Center
Sun 10:20:57 AM 35.7778 -80.4961 59° Northeast 439 505 29,000  Level Atlanta Center
Sun 10:22:51 AM 35.9000 -80.2614 57° Northeast 457 526 29,000  Level Washington Center
Sun 10:23:49 AM 35.9656 -80.1319 58° Northeast 444 511 29,000  Level Washington Center
Sun 10:24:50 AM 36.0239 -80.0222 57° Northeast 433 498 29,000  Level Washington Center
Sun 10:25:50 AM 36.0889 -79.9000 57° Northeast 433 498 29,000  Level Washington Center
Sun 10:26:51 AM 36.1689 -79.7603 55° Northeast 438 504 29,000 -50 Level Washington Center
Sun 10:27:51 AM 36.2381 -79.6353 56° Northeast 443 510 28,900 -559 Descending Washington Center
Sun 10:28:49 AM 36.3111 -79.5050 55° Northeast 443 510 27,900 -958 Descending Washington Center
Sun 10:29:50 AM 36.3861 -79.3769 54° Northeast 449 517 27,000 -787 Descending Washington Center
Sun 10:30:51 AM 36.4528 -79.2536 56° Northeast 462 532 26,300 -793 Descending Washington Center
Sun 10:31:51 AM 36.5383 -79.1078 54° Northeast 467 537 25,400 -661 Descending Washington Center
Sun 10:32:49 AM 36.6133 -78.9742 55° Northeast 467 537 25,000 -203 Descending Washington Center
Sun 10:33:49 AM 36.6817 -78.8372 58° Northeast 462 532 25,000  Level Washington Center
Sun 10:34:49 AM 36.7539 -78.7106 55° Northeast 457 526 25,000  Level Washington Center
Sun 10:35:50 AM 36.8297 -78.6019 49° Northeast 438 504 25,000 -99 Level Washington Center
Sun 10:36:50 AM 36.9214 -78.5275 33° Northeast 425 489 24,800 -446 Descending Washington Center
Sun 10:37:51 AM 37.0236 -78.4406 34° Northeast 430 495 24,100 99 Descending Washington Center
Sun 10:38:51 AM 37.1278 -78.3558 33° Northeast 441 507 25,000 -661 Climbing Washington Center
Sun 10:39:49 AM 37.2342 -78.2656 34° Northeast 447 514 22,800 -1,500 Descending Washington Center
Sun 10:40:51 AM 37.3467 -78.1678 35° Northeast 447 514 22,000 -400 Descending Washington Center
Sun 10:41:49 AM 37.4361 -78.0922 34° Northeast 442 509 22,000  Level Washington Center
Sun 10:42:51 AM 37.5358 -78.0064 34° Northeast 437 503 22,000  Level Washington Center
Sun 10:43:49 AM 37.6333 -77.9206 35° Northeast 432 497 22,000 -706 Level Washington Center
Sun 10:44:50 AM 37.7311 -77.8367 34° Northeast 427 491 20,600 -1,983 Descending Washington Center
Sun 10:45:50 AM 37.8242 -77.7556 35° Northeast 427 491 18,000 -2,450 Descending Washington Center
Sun 10:46:50 AM 37.9217 -77.6714 34° Northeast 406 467 15,700 -2,420 Descending Washington Center
Sun 10:47:49 AM 38.0064 -77.6000 34° Northeast 378 435 13,200 -2,370 Descending Washington Center
Sun 10:48:49 AM 38.0803 -77.5386 33° Northeast 362 417 11,000 -1,587 Descending Washington Center
Sun 10:49:50 AM 38.1606 -77.4694 34° Northeast 356 410 10,000 -836 Descending Washington Center
Sun 10:50:51 AM 38.2344 -77.4183 29° Northeast 328 377 9,300 -1,261 Descending Washington Center
Sun 10:51:49 AM 38.3078 -77.3964 13° North 299 344 7,500 -1,664 Descending Washington Center
Sun 10:52:50 AM 38.3778 -77.4456 331° Northwest 254 292 6,000 -1,240 Descending Washington Center
Sun 10:53:50 AM 38.4528 -77.4503 357° North 259 298 5,000 -958 Descending Washington Center
Sun 10:54:49 AM 38.5300 -77.4469 North 264 304 4,100 -504 Descending Washington Center
Sun 10:55:49 AM 38.6011 -77.4458 North 264 304 4,000 -556 Descending Washington Center
Sun 10:56:37 AM 38.6667 -77.4333 North 252 290 3,100 -778 Descending Potomac TRACON
Sun 10:57:37 AM 38.7333 -77.4333 360° North 245 282 2,600 -632 Descending Potomac TRACON
Sun 10:58:31 AM 38.8000 -77.4333 360° North 234 269 1,900 -778 Descending Potomac TRACON

Login

Don't have an account? Register now (free) for customized features, flight alerts, and more!